sensor_id;sensor_type;location;lat;lon;timestamp;P1;durP1;ratioP1;P2;durP2;ratioP2
30466;SDS011;17258;52.560;13.046;2022-12-18T00:04:40;19.88;;;13.90;;
30466;SDS011;17258;52.560;13.046;2022-12-18T00:14:40;18.00;;;12.07;;
30466;SDS011;17258;52.560;13.046;2022-12-18T00:24:45;18.90;;;12.57;;
30466;SDS011;17258;52.560;13.046;2022-12-18T00:34:45;18.40;;;13.07;;
30466;SDS011;17258;52.560;13.046;2022-12-18T00:44:46;20.80;;;12.47;;
30466;SDS011;17258;52.560;13.046;2022-12-18T00:54:47;20.73;;;13.83;;
30466;SDS011;17258;52.560;13.046;2022-12-18T01:04:47;22.07;;;13.80;;
30466;SDS011;17258;52.560;13.046;2022-12-18T01:14:48;18.10;;;12.23;;
30466;SDS011;17258;52.560;13.046;2022-12-18T01:24:49;13.60;;;11.40;;
30466;SDS011;17258;52.560;13.046;2022-12-18T01:34:49;17.07;;;13.17;;
30466;SDS011;17258;52.560;13.046;2022-12-18T01:44:54;19.90;;;13.17;;
30466;SDS011;17258;52.560;13.046;2022-12-18T01:54:59;22.45;;;13.23;;
30466;SDS011;17258;52.560;13.046;2022-12-18T02:05:02;16.73;;;12.80;;
30466;SDS011;17258;52.560;13.046;2022-12-18T02:15:09;22.13;;;12.77;;
30466;SDS011;17258;52.560;13.046;2022-12-18T02:25:20;16.15;;;11.23;;
30466;SDS011;17258;52.560;13.046;2022-12-18T02:36:01;14.52;;;11.68;;
30466;SDS011;17258;52.560;13.046;2022-12-18T02:56:35;11.20;;;8.33;;
30466;SDS011;17258;52.560;13.046;2022-12-18T03:06:48;14.17;;;9.47;;
30466;SDS011;17258;52.560;13.046;2022-12-18T03:16:53;22.08;;;11.57;;
30466;SDS011;17258;52.560;13.046;2022-12-18T03:27:02;13.77;;;9.37;;
30466;SDS011;17258;52.560;13.046;2022-12-18T03:37:09;21.15;;;10.27;;
30466;SDS011;17258;52.560;13.046;2022-12-18T03:47:14;14.63;;;10.85;;
30466;SDS011;17258;52.560;13.046;2022-12-18T03:57:21;17.95;;;11.43;;
30466;SDS011;17258;52.560;13.046;2022-12-18T04:07:25;17.65;;;12.43;;
30466;SDS011;17258;52.560;13.046;2022-12-18T04:17:26;14.80;;;10.70;;
30466;SDS011;17258;52.560;13.046;2022-12-18T04:27:27;19.40;;;12.50;;
30466;SDS011;17258;52.560;13.046;2022-12-18T04:37:28;14.07;;;11.57;;
30466;SDS011;17258;52.560;13.046;2022-12-18T04:47:28;16.77;;;12.40;;
30466;SDS011;17258;52.560;13.046;2022-12-18T04:57:29;19.87;;;14.30;;
30466;SDS011;17258;52.560;13.046;2022-12-18T05:07:29;21.43;;;13.63;;
30466;SDS011;17258;52.560;13.046;2022-12-18T05:17:30;16.35;;;12.90;;
30466;SDS011;17258;52.560;13.046;2022-12-18T05:27:31;24.63;;;13.57;;
30466;SDS011;17258;52.560;13.046;2022-12-18T05:37:31;21.07;;;12.47;;
30466;SDS011;17258;52.560;13.046;2022-12-18T05:47:32;18.00;;;12.57;;
30466;SDS011;17258;52.560;13.046;2022-12-18T05:57:33;16.77;;;11.50;;
30466;SDS011;17258;52.560;13.046;2022-12-18T06:07:33;13.80;;;10.40;;
30466;SDS011;17258;52.560;13.046;2022-12-18T06:17:34;16.97;;;12.10;;
30466;SDS011;17258;52.560;13.046;2022-12-18T06:27:36;14.05;;;10.88;;
30466;SDS011;17258;52.560;13.046;2022-12-18T06:37:37;15.45;;;11.38;;
30466;SDS011;17258;52.560;13.046;2022-12-18T06:47:37;14.63;;;10.73;;
30466;SDS011;17258;52.560;13.046;2022-12-18T06:57:38;11.07;;;8.73;;
30466;SDS011;17258;52.560;13.046;2022-12-18T07:07:38;11.33;;;9.53;;
30466;SDS011;17258;52.560;13.046;2022-12-18T07:17:39;13.90;;;11.37;;
30466;SDS011;17258;52.560;13.046;2022-12-18T07:27:40;13.00;;;10.33;;
30466;SDS011;17258;52.560;13.046;2022-12-18T07:37:40;15.90;;;10.43;;
30466;SDS011;17258;52.560;13.046;2022-12-18T07:47:42;20.38;;;12.65;;
30466;SDS011;17258;52.560;13.046;2022-12-18T07:57:43;18.03;;;11.87;;
30466;SDS011;17258;52.560;13.046;2022-12-18T08:07:44;19.30;;;11.70;;
30466;SDS011;17258;52.560;13.046;2022-12-18T08:17:44;15.43;;;11.38;;
30466;SDS011;17258;52.560;13.046;2022-12-18T08:27:45;20.10;;;12.07;;
30466;SDS011;17258;52.560;13.046;2022-12-18T08:37:46;14.57;;;11.67;;
30466;SDS011;17258;52.560;13.046;2022-12-18T08:47:46;16.77;;;10.73;;
30466;SDS011;17258;52.560;13.046;2022-12-18T08:57:50;15.50;;;10.30;;
30466;SDS011;17258;52.560;13.046;2022-12-18T09:07:51;14.70;;;11.32;;
30466;SDS011;17258;52.560;13.046;2022-12-18T09:17:51;23.37;;;15.37;;
30466;SDS011;17258;52.560;13.046;2022-12-18T09:27:52;24.08;;;15.90;;
30466;SDS011;17258;52.560;13.046;2022-12-18T09:37:53;18.47;;;15.67;;
30466;SDS011;17258;52.560;13.046;2022-12-18T09:47:54;26.40;;;14.60;;
30466;SDS011;17258;52.560;13.046;2022-12-18T09:58:16;22.42;;;16.20;;
30466;SDS011;17258;52.560;13.046;2022-12-18T10:18:58;19.75;;;13.60;;
30466;SDS011;17258;52.560;13.046;2022-12-18T10:29:11;15.48;;;12.45;;
30466;SDS011;17258;52.560;13.046;2022-12-18T10:49:22;15.13;;;12.32;;
30466;SDS011;17258;52.560;13.046;2022-12-18T10:59:27;16.85;;;12.25;;
30466;SDS011;17258;52.560;13.046;2022-12-18T11:09:29;14.33;;;12.70;;
30466;SDS011;17258;52.560;13.046;2022-12-18T11:19:35;16.65;;;12.45;;
30466;SDS011;17258;52.560;13.046;2022-12-18T11:29:39;17.90;;;11.32;;
30466;SDS011;17258;52.560;13.046;2022-12-18T11:39:41;15.82;;;10.70;;
30466;SDS011;17258;52.560;13.046;2022-12-18T11:49:50;19.17;;;12.98;;
30466;SDS011;17258;52.560;13.046;2022-12-18T12:00:12;13.15;;;10.60;;
30466;SDS011;17258;52.560;13.046;2022-12-18T12:20:42;11.63;;;9.57;;
30466;SDS011;17258;52.560;13.046;2022-12-18T12:31:01;12.40;;;9.93;;
30466;SDS011;17258;52.560;13.046;2022-12-18T12:41:23;21.95;;;13.23;;
30466;SDS011;17258;52.560;13.046;2022-12-18T12:51:48;13.75;;;11.63;;
30466;SDS011;17258;52.560;13.046;2022-12-18T13:01:58;16.70;;;11.55;;
30466;SDS011;17258;52.560;13.046;2022-12-18T13:22:36;10.57;;;9.18;;
30466;SDS011;17258;52.560;13.046;2022-12-18T13:32:46;12.60;;;10.35;;
30466;SDS011;17258;52.560;13.046;2022-12-18T13:42:46;11.87;;;9.90;;
30466;SDS011;17258;52.560;13.046;2022-12-18T13:53:05;12.63;;;9.88;;
30466;SDS011;17258;52.560;13.046;2022-12-18T14:03:15;10.25;;;7.63;;
30466;SDS011;17258;52.560;13.046;2022-12-18T14:13:31;9.05;;;8.23;;
30466;SDS011;17258;52.560;13.046;2022-12-18T14:23:40;10.45;;;8.50;;
30466;SDS011;17258;52.560;13.046;2022-12-18T14:33:41;12.30;;;9.52;;
30466;SDS011;17258;52.560;13.046;2022-12-18T14:43:43;14.53;;;9.73;;
30466;SDS011;17258;52.560;13.046;2022-12-18T14:53:47;14.10;;;10.57;;
30466;SDS011;17258;52.560;13.046;2022-12-18T15:04:03;10.50;;;9.40;;
30466;SDS011;17258;52.560;13.046;2022-12-18T15:14:39;12.38;;;10.60;;
30466;SDS011;17258;52.560;13.046;2022-12-18T15:24:41;15.95;;;11.82;;
30466;SDS011;17258;52.560;13.046;2022-12-18T15:34:41;15.43;;;13.20;;
30466;SDS011;17258;52.560;13.046;2022-12-18T15:44:42;17.33;;;13.83;;
30466;SDS011;17258;52.560;13.046;2022-12-18T15:54:43;17.92;;;13.98;;
30466;SDS011;17258;52.560;13.046;2022-12-18T16:05:03;22.63;;;17.60;;
30466;SDS011;17258;52.560;13.046;2022-12-18T16:15:13;21.02;;;15.98;;
30466;SDS011;17258;52.560;13.046;2022-12-18T16:25:17;19.67;;;16.10;;
30466;SDS011;17258;52.560;13.046;2022-12-18T16:35:23;11.23;;;10.10;;
30466;SDS011;17258;52.560;13.046;2022-12-18T16:45:26;18.60;;;12.73;;
30466;SDS011;17258;52.560;13.046;2022-12-18T16:55:32;14.90;;;11.27;;
30466;SDS011;17258;52.560;13.046;2022-12-18T17:05:33;12.03;;;10.43;;
30466;SDS011;17258;52.560;13.046;2022-12-18T17:15:34;11.83;;;9.83;;
30466;SDS011;17258;52.560;13.046;2022-12-18T17:25:38;11.60;;;10.43;;
30466;SDS011;17258;52.560;13.046;2022-12-18T17:35:39;13.80;;;10.98;;
30466;SDS011;17258;52.560;13.046;2022-12-18T17:45:40;13.45;;;11.13;;
30466;SDS011;17258;52.560;13.046;2022-12-18T17:55:40;13.60;;;10.17;;
30466;SDS011;17258;52.560;13.046;2022-12-18T18:05:41;13.80;;;11.00;;
30466;SDS011;17258;52.560;13.046;2022-12-18T18:15:41;14.30;;;10.70;;
30466;SDS011;17258;52.560;13.046;2022-12-18T18:25:42;15.70;;;10.40;;
30466;SDS011;17258;52.560;13.046;2022-12-18T18:35:43;12.60;;;10.77;;
30466;SDS011;17258;52.560;13.046;2022-12-18T18:45:44;12.98;;;10.70;;
30466;SDS011;17258;52.560;13.046;2022-12-18T18:55:45;13.50;;;11.73;;
30466;SDS011;17258;52.560;13.046;2022-12-18T19:05:49;15.60;;;11.10;;
30466;SDS011;17258;52.560;13.046;2022-12-18T19:16:05;16.98;;;12.02;;
30466;SDS011;17258;52.560;13.046;2022-12-18T19:26:08;12.05;;;10.57;;
30466;SDS011;17258;52.560;13.046;2022-12-18T19:46:14;12.40;;;11.10;;
30466;SDS011;17258;52.560;13.046;2022-12-18T19:56:19;11.55;;;10.43;;
30466;SDS011;17258;52.560;13.046;2022-12-18T20:16:27;17.70;;;12.13;;
30466;SDS011;17258;52.560;13.046;2022-12-18T20:26:28;16.88;;;12.27;;
30466;SDS011;17258;52.560;13.046;2022-12-18T20:36:28;25.27;;;12.75;;
30466;SDS011;17258;52.560;13.046;2022-12-18T20:46:29;14.00;;;11.13;;
30466;SDS011;17258;52.560;13.046;2022-12-18T20:56:30;17.00;;;13.50;;
30466;SDS011;17258;52.560;13.046;2022-12-18T21:06:31;13.75;;;10.38;;
30466;SDS011;17258;52.560;13.046;2022-12-18T21:16:31;14.17;;;10.23;;
30466;SDS011;17258;52.560;13.046;2022-12-18T21:26:32;17.13;;;11.37;;
30466;SDS011;17258;52.560;13.046;2022-12-18T21:36:33;13.32;;;11.25;;
30466;SDS011;17258;52.560;13.046;2022-12-18T21:46:38;13.38;;;11.82;;
30466;SDS011;17258;52.560;13.046;2022-12-18T22:06:45;15.90;;;12.68;;
30466;SDS011;17258;52.560;13.046;2022-12-18T22:16:47;12.65;;;10.95;;
30466;SDS011;17258;52.560;13.046;2022-12-18T22:26:50;21.92;;;13.35;;
30466;SDS011;17258;52.560;13.046;2022-12-18T22:36:54;14.70;;;12.02;;
30466;SDS011;17258;52.560;13.046;2022-12-18T22:46:55;14.10;;;11.10;;
30466;SDS011;17258;52.560;13.046;2022-12-18T22:56:56;16.85;;;11.73;;
30466;SDS011;17258;52.560;13.046;2022-12-18T23:06:56;13.13;;;10.15;;
30466;SDS011;17258;52.560;13.046;2022-12-18T23:16:57;17.90;;;12.57;;
30466;SDS011;17258;52.560;13.046;2022-12-18T23:26:58;14.97;;;11.27;;
30466;SDS011;17258;52.560;13.046;2022-12-18T23:36:58;20.90;;;13.57;;
30466;SDS011;17258;52.560;13.046;2022-12-18T23:46:59;17.23;;;12.25;;
30466;SDS011;17258;52.560;13.046;2022-12-18T23:57:00;15.27;;;11.83;;
